createdAt,value
2023-04-22T00:00:41.340Z,8.4
2023-04-22T00:15:41.437Z,8.5
2023-04-22T00:30:42.556Z,8.4
2023-04-22T00:45:42.570Z,8.4
2023-04-22T01:00:43.340Z,8.4
2023-04-22T01:15:43.602Z,8.4
2023-04-22T01:30:46.387Z,8.4
2023-04-22T01:45:45.490Z,8.1
2023-04-22T02:00:45.919Z,8.1
2023-04-22T02:15:46.946Z,7.4
2023-04-22T02:30:47.181Z,7.7
2023-04-22T02:45:48.175Z,7.8
2023-04-22T03:00:48.905Z,7.4
2023-04-22T03:15:49.652Z,7.3
2023-04-22T03:30:50.219Z,6.9
2023-04-22T03:45:50.766Z,7.2
2023-04-22T04:00:50.965Z,7
2023-04-22T04:15:45.159Z,6.9
2023-04-22T04:30:45.891Z,6.7
2023-04-22T04:45:49.251Z,6.8
2023-04-22T05:00:46.732Z,6.7
2023-04-22T05:15:48.014Z,6.7
2023-04-22T05:30:47.832Z,7
2023-04-22T05:45:49.197Z,7.3
2023-04-22T06:00:49.122Z,7.7
2023-04-22T06:15:50.243Z,8.2
2023-04-22T06:30:50.204Z,8.8
2023-04-22T06:45:52.112Z,9.5
2023-04-22T07:00:52.654Z,10.1
2023-04-22T07:15:52.514Z,10.5
2023-04-22T07:30:53.423Z,11.1
2023-04-22T07:45:59.503Z,12
2023-04-22T08:00:55.638Z,12.9
2023-04-22T08:15:57.010Z,13.4
2023-04-22T08:30:57.569Z,14
2023-04-22T08:45:58.869Z,14.3
2023-04-22T09:00:59.213Z,14.6
2023-04-22T09:16:00.538Z,14.7
2023-04-22T09:31:00.369Z,15.6
2023-04-22T09:46:01.972Z,16.4
2023-04-22T10:01:01.967Z,16.9
2023-04-22T10:16:02.588Z,17.5
2023-04-22T10:31:03.614Z,18.6
2023-04-22T10:46:04.056Z,19.3
2023-04-22T11:01:04.631Z,19.5
2023-04-22T11:16:06.541Z,20.5
2023-04-22T11:31:05.208Z,20.4
2023-04-22T11:46:15.354Z,21.3
2023-04-22T12:01:10.780Z,21.3
2023-04-22T12:16:07.839Z,21.7
2023-04-22T12:31:09.302Z,22.6
2023-04-22T12:46:09.147Z,22
2023-04-22T13:01:09.005Z,21.6
2023-04-22T13:16:10.497Z,21.5
2023-04-22T13:31:10.860Z,22.4
2023-04-22T13:46:11.971Z,23.6
2023-04-22T14:01:14.997Z,23.6
2023-04-22T14:31:17.510Z,23.5
2023-04-22T14:46:14.894Z,23.3
2023-04-22T15:01:29.019Z,23.3
2023-04-22T15:16:22.249Z,23.3
2023-04-22T15:31:16.712Z,19.7
2023-04-22T15:46:17.265Z,19.3
2023-04-22T16:01:20.665Z,19
2023-04-22T16:16:19.249Z,18.5
2023-04-22T16:31:19.983Z,17.4
2023-04-22T16:46:19.521Z,16.9
2023-04-22T17:01:21.409Z,16.7
2023-04-22T17:16:22.164Z,16.9
2023-04-22T17:31:28.414Z,16.6
2023-04-22T17:46:24.448Z,15.9
2023-04-22T18:01:34.793Z,15.2
2023-04-22T18:16:26.170Z,14.9
2023-04-22T18:31:29.073Z,14.9
2023-04-22T18:46:31.511Z,14.8
2023-04-22T19:01:27.670Z,14.6
2023-04-22T19:16:28.266Z,14.5
2023-04-22T19:31:28.999Z,14.5
2023-04-22T19:46:29.773Z,14.5
2023-04-22T20:01:30.467Z,14.4
2023-04-22T20:16:31.815Z,14.2
2023-04-22T20:31:34.573Z,14.2
2023-04-22T20:46:49.572Z,14.7
2023-04-22T21:01:33.111Z,13.9
2023-04-22T21:16:33.581Z,13.7
2023-04-22T21:31:34.166Z,13.5
2023-04-22T21:46:36.070Z,13
2023-04-22T22:00:49.572Z,13
2023-04-22T22:15:35.818Z,13.2
2023-04-22T22:30:35.429Z,13.6
2023-04-22T22:45:36.233Z,12.6
2023-04-22T23:00:36.847Z,13
2023-04-22T23:15:36.775Z,12.9
2023-04-22T23:30:37.927Z,12.8
2023-04-22T23:45:38.403Z,12.5
